Time;durP1;ratioP1;P1;durP2;ratioP2;P2;SDS_P1;SDS_P2;PMS_P1;PMS_P2;Temp;Humidity;BMP_temperature;BMP_pressure;BME280_temperature;BME280_humidity;BME280_pressure;Samples;Min_cycle;Max_cycle;Signal;HPM_P1;HPM_P2
2023/09/20 00:02:08;;;;;;;23.45;6.07;;;16.70;99.90;;;;;;5075078;28;20052;-80
2023/09/20 00:04:35;;;;;;;20.52;6.20;;;16.80;99.90;;;;;;5075128;28;20048;-80
2023/09/20 00:07:02;;;;;;;18.20;6.28;;;16.70;99.90;;;;;;5075308;28;20119;-80
2023/09/20 00:09:30;;;;;;;20.08;6.07;;;16.80;99.90;;;;;;5074952;28;20060;-80
2023/09/20 00:11:56;;;;;;;16.67;6.03;;;16.70;99.90;;;;;;5075077;28;20063;-80
2023/09/20 00:14:22;;;;;;;19.17;6.40;;;16.70;99.90;;;;;;5075085;28;20044;-80
2023/09/20 00:16:52;;;;;;;16.67;6.60;;;16.80;99.90;;;;;;5075066;28;20055;-82
2023/09/20 00:19:18;;;;;;;18.55;7.47;;;16.70;99.90;;;;;;5075084;28;20438;-81
2023/09/20 00:21:46;;;;;;;15.80;6.97;;;16.70;99.90;;;;;;5074726;28;20049;-81
2023/09/20 00:24:11;;;;;;;14.77;6.20;;;16.70;99.90;;;;;;5075019;28;20041;-81
2023/09/20 00:26:37;;;;;;;18.45;5.88;;;16.60;99.90;;;;;;5074560;28;20044;-80
2023/09/20 00:29:07;;;;;;;15.88;6.38;;;16.70;99.90;;;;;;5074499;28;20048;-81
2023/09/20 00:31:33;;;;;;;22.52;7.28;;;16.60;99.90;;;;;;5074778;28;20426;-82
2023/09/20 00:34:00;;;;;;;16.98;5.28;;;16.60;99.90;;;;;;5075537;28;20492;-81
2023/09/20 00:36:26;;;;;;;21.88;6.90;;;16.70;99.90;;;;;;5074514;28;20041;-80
2023/09/20 00:38:55;;;;;;;17.08;5.75;;;16.70;99.90;;;;;;5074308;28;20101;-80
2023/09/20 00:41:21;;;;;;;16.60;4.63;;;16.70;99.90;;;;;;5075509;28;20131;-83
2023/09/20 00:43:47;;;;;;;16.85;5.38;;;16.70;99.90;;;;;;5074318;28;20124;-81
2023/09/20 00:46:13;;;;;;;18.95;5.72;;;16.70;99.90;;;;;;5075598;28;20040;-82
2023/09/20 00:48:40;;;;;;;17.85;6.10;;;16.60;99.90;;;;;;5074283;28;20045;-81
2023/09/20 00:51:06;;;;;;;16.02;5.90;;;16.70;99.90;;;;;;5074116;28;20400;-81
2023/09/20 00:53:34;;;;;;;15.60;5.30;;;16.60;99.90;;;;;;5074249;28;20037;-80
2023/09/20 00:56:02;;;;;;;12.85;4.60;;;16.50;99.90;;;;;;5075355;28;20040;-80
2023/09/20 00:58:29;;;;;;;20.23;5.70;;;16.70;99.90;;;;;;5074241;28;20040;-81
2023/09/20 01:00:55;;;;;;;14.73;4.65;;;16.70;99.90;;;;;;5073920;28;20048;-81
2023/09/20 01:03:24;;;;;;;19.08;5.70;;;16.70;99.90;;;;;;5074243;28;20130;-81
2023/09/20 01:05:50;;;;;;;15.23;4.38;;;16.60;99.90;;;;;;5073900;28;20051;-80
2023/09/20 01:08:17;;;;;;;17.55;4.80;;;16.60;99.90;;;;;;5073713;28;20078;-81
2023/09/20 01:10:45;;;;;;;21.05;4.95;;;16.70;99.90;;;;;;5073965;28;20411;-81
2023/09/20 01:13:12;;;;;;;11.95;4.30;;;16.70;99.90;;;;;;5073653;28;20059;-80
2023/09/20 01:15:38;;;;;;;16.08;4.47;;;16.70;99.90;;;;;;5073915;28;20487;-81
2023/09/20 01:18:07;;;;;;;17.75;4.75;;;16.80;99.90;;;;;;5073661;28;20119;-80
2023/09/20 01:20:37;;;;;;;21.10;5.13;;;16.70;99.90;;;;;;5073311;28;20466;-81
2023/09/20 01:23:03;;;;;;;18.83;4.93;;;16.70;99.90;;;;;;5073425;28;20485;-80
2023/09/20 01:25:40;;;;;;;15.60;5.28;;;16.80;99.90;;;;;;5073415;28;20109;-80
2023/09/20 01:28:08;;;;;;;18.25;5.57;;;16.80;99.90;;;;;;5074809;28;20114;-82
2023/09/20 01:30:36;;;;;;;19.50;5.80;;;16.70;99.90;;;;;;5073312;28;20075;-81
2023/09/20 01:33:05;;;;;;;17.63;4.95;;;16.70;99.90;;;;;;5074613;28;20044;-80
2023/09/20 01:35:31;;;;;;;22.52;5.82;;;16.80;99.90;;;;;;5073147;28;20048;-81
2023/09/20 01:37:58;;;;;;;15.13;5.07;;;16.70;99.90;;;;;;5073198;28;20135;-79
2023/09/20 01:40:28;;;;;;;17.42;4.60;;;16.80;99.90;;;;;;5072942;28;20059;-80
2023/09/20 01:42:58;;;;;;;17.42;5.20;;;16.80;99.90;;;;;;5073179;28;20048;-79
2023/09/20 01:45:24;;;;;;;21.85;5.63;;;16.80;99.90;;;;;;5072623;28;20056;-81
2023/09/20 01:47:55;;;;;;;19.65;5.78;;;16.80;99.90;;;;;;5072914;28;20040;-80
2023/09/20 01:50:23;;;;;;;17.42;5.80;;;16.70;99.90;;;;;;5073271;28;20510;-80
2023/09/20 01:52:56;;;;;;;16.25;5.43;;;16.90;99.90;;;;;;5072977;28;20097;-80
2023/09/20 01:55:24;;;;;;;16.00;6.35;;;16.80;99.90;;;;;;5072971;28;20463;-80
2023/09/20 01:57:55;;;;;;;14.77;5.97;;;16.70;99.90;;;;;;5072872;28;20076;-81
2023/09/20 02:00:28;;;;;;;18.40;5.85;;;16.70;99.90;;;;;;5072861;28;20448;-80
2023/09/20 02:03:00;;;;;;;18.23;5.97;;;16.60;99.90;;;;;;5072767;28;20119;-80
2023/09/20 02:05:27;;;;;;;18.52;5.35;;;16.70;99.90;;;;;;5072744;28;20044;-80
2023/09/20 02:07:58;;;;;;;17.90;5.03;;;16.80;99.90;;;;;;5072788;28;20059;-80
2023/09/20 02:10:24;;;;;;;19.98;4.80;;;16.70;99.90;;;;;;5072689;28;20041;-81
2023/09/20 02:12:54;;;;;;;14.27;4.63;;;16.80;99.90;;;;;;5072532;28;20048;-80
2023/09/20 02:15:41;;;;;;;14.80;4.20;;;16.60;99.90;;;;;;5072607;28;20137;-80
2023/09/20 02:18:08;;;;;;;21.73;6.15;;;16.80;99.90;;;;;;5073133;28;20067;-80
2023/09/20 02:20:37;;;;;;;22.05;4.82;;;16.80;99.90;;;;;;5072689;28;20123;-80
2023/09/20 02:23:05;;;;;;;18.17;4.93;;;16.80;99.90;;;;;;5072429;28;20079;-80
2023/09/20 02:25:31;;;;;;;15.68;4.53;;;16.80;99.90;;;;;;5072392;28;20052;-80
2023/09/20 02:27:58;;;;;;;18.27;4.95;;;16.80;99.90;;;;;;5072623;28;20082;-80
2023/09/20 02:30:24;;;;;;;18.23;5.15;;;16.80;99.90;;;;;;5072873;28;20048;-81
2023/09/20 02:32:57;;;;;;;20.35;5.38;;;16.80;99.90;;;;;;5072670;28;20361;-80
2023/09/20 02:35:24;;;;;;;21.13;4.70;;;16.80;99.90;;;;;;5072547;28;20052;-80
2023/09/20 02:37:53;;;;;;;20.48;4.85;;;16.80;99.90;;;;;;5072279;28;20071;-80
2023/09/20 02:40:18;;;;;;;17.05;5.25;;;16.70;99.90;;;;;;5072052;28;21204;-79
2023/09/20 02:42:54;;;;;;;23.65;5.35;;;16.80;99.90;;;;;;5072612;28;20083;-80
2023/09/20 02:45:20;;;;;;;19.50;5.00;;;16.70;99.90;;;;;;5072054;28;20123;-79
2023/09/20 02:47:47;;;;;;;17.35;4.70;;;16.80;99.90;;;;;;5073566;28;20094;-80
2023/09/20 02:50:16;;;;;;;20.27;5.40;;;16.80;99.90;;;;;;5073506;28;20468;-79
2023/09/20 02:52:43;;;;;;;15.85;4.50;;;16.80;99.90;;;;;;5073384;28;20041;-79
2023/09/20 02:55:12;;;;;;;19.23;4.43;;;16.70;99.90;;;;;;5072450;28;20395;-80
2023/09/20 02:57:39;;;;;;;18.33;4.60;;;16.80;99.90;;;;;;5075943;28;20060;-80
2023/09/20 03:00:16;;;;;;;13.30;4.00;;;16.80;99.90;;;;;;5076493;28;20073;-80
2023/09/20 03:02:46;;;;;;;16.25;4.70;;;16.70;99.90;;;;;;5076377;28;20484;-80
2023/09/20 03:05:18;;;;;;;19.65;4.75;;;16.80;99.90;;;;;;5077350;28;20097;-81
2023/09/20 03:07:45;;;;;;;18.48;5.40;;;16.70;99.90;;;;;;5077364;28;20427;-80
2023/09/20 03:10:12;;;;;;;15.73;5.18;;;16.90;99.90;;;;;;5076346;28;20425;-80
2023/09/20 03:12:43;;;;;;;19.70;5.22;;;16.90;99.90;;;;;;5076115;28;20128;-80
2023/09/20 03:15:17;;;;;;;14.13;5.28;;;16.80;99.90;;;;;;5075810;28;20446;-81
2023/09/20 03:17:44;;;;;;;17.38;5.40;;;16.80;99.90;;;;;;5076166;28;20484;-80
2023/09/20 03:20:10;;;;;;;13.95;5.07;;;16.90;99.90;;;;;;5075623;28;20039;-82
2023/09/20 03:22:37;;;;;;;17.85;4.95;;;16.80;99.90;;;;;;5076131;28;20045;-81
2023/09/20 03:25:04;;;;;;;14.55;4.90;;;17.00;99.90;;;;;;5077209;28;20044;-80
2023/09/20 03:27:30;;;;;;;18.33;5.28;;;17.00;99.90;;;;;;5075797;28;20048;-80
2023/09/20 03:29:57;;;;;;;14.00;4.28;;;17.00;99.90;;;;;;5075857;28;20041;-80
2023/09/20 03:32:23;;;;;;;16.08;5.22;;;17.00;99.90;;;;;;5076096;28;20114;-80
2023/09/20 03:34:49;;;;;;;14.20;4.53;;;17.00;99.90;;;;;;5075546;28;20415;-80
2023/09/20 03:37:18;;;;;;;15.88;4.50;;;16.90;99.90;;;;;;5075956;28;20055;-80
2023/09/20 03:39:46;;;;;;;16.77;5.75;;;16.90;99.90;;;;;;5075081;28;20044;-80
2023/09/20 03:42:11;;;;;;;17.55;4.68;;;16.90;99.90;;;;;;5075523;28;20059;-80
2023/09/20 03:44:39;;;;;;;13.65;4.50;;;17.00;99.90;;;;;;5076719;28;20036;-80
2023/09/20 03:47:06;;;;;;;17.00;4.55;;;16.80;99.90;;;;;;5076682;28;20149;-81
2023/09/20 03:49:31;;;;;;;17.90;5.05;;;16.90;99.90;;;;;;5075262;28;20041;-79
2023/09/20 03:52:00;;;;;;;14.48;4.57;;;16.80;99.90;;;;;;5075330;28;20181;-80
2023/09/20 03:54:28;;;;;;;14.48;4.85;;;16.90;99.90;;;;;;5075291;28;20055;-80
2023/09/20 03:56:54;;;;;;;14.85;4.88;;;16.90;99.90;;;;;;5075318;28;20059;-80
2023/09/20 03:59:20;;;;;;;13.82;4.78;;;16.80;99.90;;;;;;5075279;28;20040;-80
2023/09/20 04:01:46;;;;;;;18.05;4.18;;;16.70;99.90;;;;;;5075108;28;20044;-80
2023/09/20 04:04:11;;;;;;;19.05;4.70;;;16.90;99.90;;;;;;5076350;28;20037;-79
2023/09/20 04:06:38;;;;;;;8.98;4.30;;;16.80;99.90;;;;;;5075413;28;20585;-80
2023/09/20 04:09:09;;;;;;;16.45;5.07;;;16.90;99.90;;;;;;5074258;28;20575;-79
2023/09/20 04:11:40;;;;;;;10.63;4.80;;;16.80;99.90;;;;;;5075198;28;20388;-80
2023/09/20 04:14:07;;;;;;;16.67;5.35;;;16.90;99.90;;;;;;5074837;28;20509;-80
2023/09/20 04:16:35;;;;;;;16.73;5.18;;;16.80;99.90;;;;;;5074824;28;20040;-79
2023/09/20 04:19:01;;;;;;;14.18;5.60;;;16.90;99.90;;;;;;5074827;28;20476;-78
2023/09/20 04:21:27;;;;;;;11.98;4.65;;;16.80;99.90;;;;;;5074829;28;20499;-79
2023/09/20 04:23:53;;;;;;;13.52;5.60;;;16.90;99.90;;;;;;5074536;28;20400;-78
2023/09/20 04:26:18;;;;;;;14.25;5.40;;;16.90;99.90;;;;;;5076008;28;20040;-80
2023/09/20 04:28:44;;;;;;;15.18;5.20;;;16.80;99.90;;;;;;5074511;28;20411;-79
2023/09/20 04:31:10;;;;;;;18.00;5.43;;;16.90;99.90;;;;;;5074442;28;20449;-81
2023/09/20 04:33:36;;;;;;;14.25;5.25;;;16.90;99.90;;;;;;5074847;28;20055;-79
2023/09/20 04:36:04;;;;;;;14.68;4.95;;;16.80;99.90;;;;;;5074505;28;20040;-80
2023/09/20 04:38:30;;;;;;;16.27;5.57;;;16.80;99.90;;;;;;5074583;28;20052;-78
2023/09/20 04:40:59;;;;;;;13.98;5.70;;;16.80;99.90;;;;;;5073881;28;20132;-79
2023/09/20 04:43:25;;;;;;;14.52;4.93;;;16.90;99.90;;;;;;5074353;28;20087;-79
2023/09/20 04:45:51;;;;;;;15.30;5.43;;;16.70;99.90;;;;;;5074336;28;20063;-79
2023/09/20 04:48:17;;;;;;;13.55;5.38;;;16.80;99.90;;;;;;5075632;28;20040;-79
2023/09/20 04:50:42;;;;;;;14.05;5.07;;;16.80;99.90;;;;;;5074238;28;20067;-79
2023/09/20 04:53:08;;;;;;;13.13;4.72;;;16.70;99.90;;;;;;5074114;28;20086;-79
2023/09/20 04:55:37;;;;;;;16.25;5.40;;;16.80;99.90;;;;;;5074024;28;20127;-79
2023/09/20 04:58:03;;;;;;;12.07;5.32;;;16.70;99.90;;;;;;5075157;28;20045;-81
2023/09/20 05:00:37;;;;;;;17.02;5.50;;;16.70;99.90;;;;;;5074028;28;20045;-78
2023/09/20 05:03:03;;;;;;;16.63;5.13;;;16.60;99.90;;;;;;5074023;28;20484;-79
2023/09/20 05:05:29;;;;;;;10.75;4.32;;;16.70;99.90;;;;;;5075167;28;20048;-79
2023/09/20 05:07:56;;;;;;;13.80;4.88;;;16.70;99.90;;;;;;5073690;28;20044;-79
2023/09/20 05:10:25;;;;;;;14.30;4.75;;;16.60;99.90;;;;;;5073787;28;20056;-79
2023/09/20 05:12:51;;;;;;;16.92;5.55;;;16.60;99.90;;;;;;5073878;28;20089;-79
2023/09/20 05:15:17;;;;;;;14.77;5.63;;;16.60;99.90;;;;;;5073588;28;20451;-79
2023/09/20 05:17:43;;;;;;;14.93;5.07;;;16.50;99.90;;;;;;5074605;28;20059;-80
2023/09/20 05:20:14;;;;;;;12.82;4.97;;;16.50;99.90;;;;;;5070960;28;20044;-78
2023/09/20 05:22:46;;;;;;;16.35;5.18;;;16.50;99.90;;;;;;5074542;28;20048;-80
2023/09/20 05:25:11;;;;;;;15.13;5.25;;;16.40;99.90;;;;;;5073632;28;20047;-79
2023/09/20 05:27:37;;;;;;;13.57;5.18;;;16.40;99.90;;;;;;5073244;28;20041;-79
2023/09/20 05:30:03;;;;;;;12.93;4.95;;;16.50;99.90;;;;;;5073162;28;20048;-80
2023/09/20 05:32:29;;;;;;;14.05;5.00;;;16.40;99.90;;;;;;5073100;28;20074;-81
2023/09/20 05:34:55;;;;;;;14.02;5.40;;;16.40;99.90;;;;;;5073180;28;20048;-80
2023/09/20 05:37:21;;;;;;;15.10;5.70;;;16.40;99.90;;;;;;5073102;28;20036;-80
2023/09/20 05:39:48;;;;;;;16.17;5.47;;;16.30;99.90;;;;;;5072760;28;20198;-80
2023/09/20 05:42:20;;;;;;;13.23;5.30;;;16.40;99.90;;;;;;5072831;28;20086;-80
2023/09/20 05:44:46;;;;;;;15.05;5.88;;;16.30;99.90;;;;;;5072880;28;20128;-79
2023/09/20 05:47:11;;;;;;;13.43;5.28;;;16.30;99.90;;;;;;5073106;28;20139;-80
2023/09/20 05:49:37;;;;;;;11.57;5.07;;;16.40;99.90;;;;;;5074068;28;20040;-79
2023/09/20 05:52:06;;;;;;;9.63;5.13;;;16.30;99.90;;;;;;5073193;28;20502;-79
2023/09/20 05:54:32;;;;;;;15.45;4.90;;;16.30;99.90;;;;;;5072903;28;20057;-79
2023/09/20 05:56:59;;;;;;;16.73;5.32;;;16.20;99.90;;;;;;5073123;28;20182;-80
2023/09/20 05:59:26;;;;;;;14.27;5.05;;;16.30;99.90;;;;;;5072860;28;20044;-80
2023/09/20 06:01:52;;;;;;;13.70;5.32;;;16.30;99.90;;;;;;5072566;28;20047;-79
2023/09/20 06:04:19;;;;;;;15.07;5.53;;;16.30;99.90;;;;;;5073817;28;20049;-81
2023/09/20 06:06:44;;;;;;;11.40;4.72;;;16.30;99.90;;;;;;5073817;28;20057;-80
2023/09/20 06:09:10;;;;;;;11.48;4.72;;;16.30;99.90;;;;;;5072820;28;20127;-79
2023/09/20 06:11:36;;;;;;;11.02;5.38;;;16.40;99.90;;;;;;5072504;28;20380;-79
2023/09/20 06:14:04;;;;;;;10.95;4.72;;;16.30;99.90;;;;;;5073724;28;20051;-79
2023/09/20 06:16:30;;;;;;;15.85;4.95;;;16.30;99.90;;;;;;5073693;28;20059;-79
2023/09/20 06:18:56;;;;;;;13.50;5.53;;;16.40;99.90;;;;;;5072734;28;20052;-78
2023/09/20 06:21:23;;;;;;;11.48;4.60;;;16.30;99.90;;;;;;5073775;28;20486;-79
2023/09/20 06:23:49;;;;;;;21.73;6.18;;;16.30;99.90;;;;;;5072266;28;20043;-80
2023/09/20 06:26:15;;;;;;;13.45;4.97;;;16.30;99.90;;;;;;5072325;28;20052;-80
2023/09/20 06:28:43;;;;;;;13.63;5.47;;;16.30;99.90;;;;;;5072418;28;20071;-80
2023/09/20 06:31:13;;;;;;;11.60;4.70;;;16.30;99.90;;;;;;5072163;28;20048;-82
2023/09/20 06:33:40;;;;;;;13.23;4.82;;;16.30;99.90;;;;;;5064553;28;20399;-79
2023/09/20 06:36:06;;;;;;;12.60;5.20;;;16.30;99.90;;;;;;5052215;28;20443;-79
2023/09/20 06:38:34;;;;;;;16.35;4.90;;;16.30;99.90;;;;;;5052127;28;20121;-79
2023/09/20 06:41:01;;;;;;;13.98;4.85;;;16.30;99.90;;;;;;5052824;28;20060;-81
2023/09/20 06:43:28;;;;;;;17.40;4.90;;;16.30;99.90;;;;;;5052223;28;20068;-80
2023/09/20 06:45:53;;;;;;;15.52;4.72;;;16.30;99.90;;;;;;5053162;28;20072;-81
2023/09/20 06:48:23;;;;;;;15.02;5.32;;;16.30;99.90;;;;;;5051725;28;20045;-80
2023/09/20 06:50:55;;;;;;;15.20;5.20;;;16.30;99.90;;;;;;5051877;28;20127;-81
2023/09/20 06:53:23;;;;;;;11.98;4.95;;;16.40;99.90;;;;;;5052140;28;20041;-82
2023/09/20 06:55:50;;;;;;;12.50;4.93;;;16.30;99.90;;;;;;5052003;28;20060;-81
2023/09/20 06:58:16;;;;;;;12.60;5.03;;;16.30;99.90;;;;;;5051984;28;20049;-84
2023/09/20 07:00:42;;;;;;;9.10;4.05;;;16.40;99.90;;;;;;5051897;28;20049;-84
2023/09/20 07:03:08;;;;;;;13.52;4.93;;;16.30;99.90;;;;;;5051740;28;20128;-81
2023/09/20 07:05:34;;;;;;;12.00;4.32;;;16.30;99.90;;;;;;5051935;28;20107;-80
2023/09/20 07:08:01;;;;;;;13.13;4.22;;;16.40;99.90;;;;;;5053236;28;20040;-78
2023/09/20 07:10:29;;;;;;;13.93;3.83;;;16.40;99.90;;;;;;5052775;28;20045;-82
2023/09/20 07:12:55;;;;;;;10.05;3.80;;;16.40;99.90;;;;;;5051584;28;20048;-79
2023/09/20 07:15:25;;;;;;;10.23;4.43;;;16.40;99.90;;;;;;5051585;28;20128;-82
2023/09/20 07:18:07;;;;;;;10.57;4.20;;;16.40;99.90;;;;;;5052068;28;20385;-77
2023/09/20 07:20:36;;;;;;;11.43;4.25;;;16.50;99.90;;;;;;5051513;28;20053;-78
2023/09/20 07:23:03;;;;;;;11.48;5.10;;;16.50;99.90;;;;;;5051527;28;20048;-78
2023/09/20 07:25:29;;;;;;;12.23;4.22;;;16.60;99.90;;;;;;5051490;28;20060;-80
2023/09/20 07:27:55;;;;;;;11.27;4.40;;;16.60;99.90;;;;;;5051621;28;20056;-79
2023/09/20 07:30:22;;;;;;;12.80;4.50;;;16.70;99.90;;;;;;5051649;28;20053;-80
2023/09/20 07:32:50;;;;;;;9.48;3.70;;;16.60;99.90;;;;;;5053076;28;20053;-80
2023/09/20 07:38:02;;;;;;;16.52;5.15;;;16.70;99.90;;;;;;5053174;28;20106;-79
2023/09/20 07:40:29;;;;;;;12.13;4.60;;;16.70;99.90;;;;;;5052518;28;20479;-79
2023/09/20 07:43:04;;;;;;;12.02;4.40;;;16.70;99.90;;;;;;5052035;28;20041;-79
2023/09/20 07:45:38;;;;;;;14.77;4.10;;;16.70;99.90;;;;;;5055581;28;20044;-79
2023/09/20 07:48:12;;;;;;;11.57;4.25;;;16.80;99.90;;;;;;5055207;28;20075;-79
2023/09/20 07:50:41;;;;;;;15.85;4.38;;;16.80;99.90;;;;;;5055370;28;20048;-79
2023/09/20 07:53:11;;;;;;;10.52;4.05;;;16.70;99.90;;;;;;5054932;28;20052;-79
2023/09/20 07:55:41;;;;;;;9.25;4.80;;;16.80;99.90;;;;;;5054707;28;20052;-80
2023/09/20 07:58:08;;;;;;;11.18;5.18;;;16.90;99.90;;;;;;5054981;28;20518;-80
2023/09/20 08:00:40;;;;;;;11.27;4.35;;;16.90;99.90;;;;;;5056440;28;20060;-79
2023/09/20 08:03:05;;;;;;;15.93;4.53;;;16.90;99.90;;;;;;5055033;28;20041;-79
2023/09/20 08:05:33;;;;;;;10.50;4.80;;;17.00;99.90;;;;;;5055217;28;20061;-83
2023/09/20 08:07:59;;;;;;;13.77;5.07;;;17.00;99.90;;;;;;5071738;28;20045;-79
2023/09/20 08:10:24;;;;;;;14.93;4.47;;;17.00;99.90;;;;;;5054944;28;20048;-79
2023/09/20 08:12:51;;;;;;;13.23;5.32;;;17.10;99.90;;;;;;5054990;28;20056;-80
2023/09/20 08:15:16;;;;;;;12.80;4.55;;;17.20;99.90;;;;;;5054727;28;20057;-79
2023/09/20 08:20:26;;;;;;;13.05;5.00;;;17.40;99.90;;;;;;5055160;28;20084;-79
2023/09/20 09:01:36;;;;;;;11.88;6.78;;;17.50;99.90;;;;;;5053844;28;20052;-79
2023/09/20 09:04:16;;;;;;;14.45;6.75;;;17.50;99.90;;;;;;5053842;28;20522;-80
2023/09/20 09:06:42;;;;;;;14.77;7.60;;;17.50;99.90;;;;;;5053827;28;20252;-80
2023/09/20 09:09:08;;;;;;;13.68;6.70;;;17.60;99.90;;;;;;5053670;28;20037;-80
2023/09/20 09:11:34;;;;;;;14.75;6.45;;;17.60;99.90;;;;;;5053672;28;20056;-79
2023/09/20 09:14:00;;;;;;;15.30;7.07;;;17.50;99.90;;;;;;5053619;28;20516;-79
2023/09/20 09:16:31;;;;;;;12.43;6.68;;;17.70;99.90;;;;;;5053433;28;20045;-79
2023/09/20 09:18:56;;;;;;;13.93;6.80;;;17.80;99.90;;;;;;5053437;28;20132;-78
2023/09/20 09:21:22;;;;;;;14.38;7.07;;;17.80;99.90;;;;;;5053351;28;20139;-80
2023/09/20 09:23:48;;;;;;;12.90;7.20;;;17.80;99.90;;;;;;5054585;28;20080;-79
2023/09/20 09:26:16;;;;;;;14.73;6.53;;;17.80;99.90;;;;;;5053370;28;20451;-79
2023/09/20 09:28:44;;;;;;;14.45;6.63;;;17.90;99.90;;;;;;5053259;28;20439;-79
2023/09/20 09:31:10;;;;;;;13.00;7.22;;;17.90;99.90;;;;;;5053445;28;20139;-80
2023/09/20 09:33:37;;;;;;;13.43;6.80;;;17.90;99.90;;;;;;5053202;28;20127;-79
2023/09/20 09:36:04;;;;;;;11.73;7.53;;;17.80;99.90;;;;;;5053163;28;20106;-79
2023/09/20 09:38:33;;;;;;;11.77;6.93;;;17.80;99.90;;;;;;5053367;28;20099;-80
2023/09/20 09:40:59;;;;;;;11.35;6.88;;;17.80;99.90;;;;;;5054072;28;20092;-79
2023/09/20 09:43:32;;;;;;;12.48;6.75;;;17.80;99.90;;;;;;5053128;28;20404;-79
2023/09/20 09:46:11;;;;;;;10.60;6.90;;;17.80;99.90;;;;;;5053125;28;20044;-80
2023/09/20 09:48:37;;;;;;;12.35;7.20;;;17.80;99.90;;;;;;5054387;28;20055;-79
2023/09/20 09:51:10;;;;;;;9.30;6.80;;;17.70;99.90;;;;;;5054446;28;20037;-79
2023/09/20 09:53:45;;;;;;;10.43;6.32;;;17.70;99.90;;;;;;5052974;28;20128;-79
2023/09/20 09:56:12;;;;;;;12.43;6.78;;;17.80;99.90;;;;;;5052775;28;20077;-79
2023/09/20 09:58:37;;;;;;;13.43;6.57;;;17.80;99.90;;;;;;5052639;28;20049;-80
2023/09/20 10:01:06;;;;;;;13.05;7.15;;;17.90;99.90;;;;;;5053867;28;20044;-83
2023/09/20 10:03:36;;;;;;;10.38;6.72;;;18.00;99.90;;;;;;5052489;28;20041;-79
2023/09/20 10:06:10;;;;;;;10.65;6.55;;;18.10;99.90;;;;;;5053481;28;20121;-80
2023/09/20 10:08:40;;;;;;;9.45;7.03;;;18.00;99.90;;;;;;5053985;28;20045;-79
2023/09/20 10:11:08;;;;;;;14.32;6.30;;;18.00;99.90;;;;;;5052654;28;20060;-80
2023/09/20 10:13:36;;;;;;;9.50;6.22;;;18.00;99.90;;;;;;5052661;28;20059;-80
2023/09/20 10:16:10;;;;;;;11.85;7.10;;;18.00;99.90;;;;;;5053905;28;20045;-80
2023/09/20 10:18:52;;;;;;;12.98;6.70;;;18.00;99.90;;;;;;5053612;28;20116;-79
2023/09/20 10:21:22;;;;;;;10.52;6.22;;;18.00;99.90;;;;;;5052477;28;20049;-79
2023/09/20 10:23:48;;;;;;;12.00;7.68;;;18.00;99.90;;;;;;5052644;28;20041;-79
2023/09/20 10:26:15;;;;;;;11.48;7.10;;;18.00;99.90;;;;;;5053513;28;20511;-79
2023/09/20 10:28:45;;;;;;;14.32;7.20;;;17.90;99.90;;;;;;5052377;28;20049;-80
2023/09/20 10:31:18;;;;;;;12.48;6.78;;;17.90;99.90;;;;;;5052570;28;20090;-81
2023/09/20 10:33:55;;;;;;;10.88;6.88;;;17.80;99.90;;;;;;5052489;28;20514;-79
2023/09/20 10:36:31;;;;;;;12.63;7.50;;;17.80;99.90;;;;;;5052210;28;20136;-79
2023/09/20 10:39:21;;;;;;;12.15;7.18;;;17.80;99.90;;;;;;5051971;28;20052;-79
2023/09/20 10:42:09;;;;;;;13.23;7.93;;;17.70;99.90;;;;;;5053387;28;20048;-80
2023/09/20 10:44:38;;;;;;;13.10;8.18;;;17.70;99.90;;;;;;5052287;28;20048;-80
2023/09/20 10:47:08;;;;;;;11.48;7.30;;;17.60;99.90;;;;;;5053293;28;20045;-79
2023/09/20 10:49:48;;;;;;;10.73;8.13;;;17.70;99.90;;;;;;5053406;28;20048;-79
2023/09/20 10:52:34;;;;;;;11.23;7.55;;;17.70;99.90;;;;;;5052191;28;20396;-79
2023/09/20 10:55:16;;;;;;;13.60;8.25;;;17.70;99.90;;;;;;5052140;28;20047;-80
2023/09/20 10:57:43;;;;;;;10.93;7.57;;;17.70;99.90;;;;;;5052214;28;20156;-79
2023/09/20 11:00:09;;;;;;;13.20;8.50;;;17.70;99.90;;;;;;5053000;28;20041;-80
2023/09/20 11:02:38;;;;;;;14.90;8.15;;;17.70;99.90;;;;;;5051921;28;20133;-79
2023/09/20 11:05:07;;;;;;;12.77;8.32;;;17.80;99.90;;;;;;5051949;28;20094;-79
2023/09/20 11:07:36;;;;;;;10.93;7.55;;;17.80;99.90;;;;;;5053106;28;20041;-79
2023/09/20 11:10:02;;;;;;;11.38;8.38;;;17.80;99.90;;;;;;5053186;28;20106;-80
2023/09/20 11:12:28;;;;;;;13.43;8.18;;;17.80;99.90;;;;;;5051809;28;20094;-79
2023/09/20 11:14:54;;;;;;;12.02;7.25;;;17.80;99.90;;;;;;5051804;28;20053;-79
2023/09/20 11:17:20;;;;;;;11.45;8.27;;;17.80;99.90;;;;;;5052925;28;20037;-80
2023/09/20 11:19:47;;;;;;;15.50;8.27;;;17.80;99.90;;;;;;5055856;28;20052;-79
2023/09/20 11:22:17;;;;;;;12.05;7.95;;;17.80;99.90;;;;;;5056912;28;20514;-80
2023/09/20 11:24:43;;;;;;;11.60;7.38;;;17.80;99.90;;;;;;5056120;28;20053;-79
2023/09/20 11:27:10;;;;;;;14.75;8.10;;;17.90;99.90;;;;;;5056885;28;20526;-79
2023/09/20 11:29:38;;;;;;;14.40;7.45;;;17.80;99.90;;;;;;5055686;28;20045;-80
2023/09/20 11:32:10;;;;;;;11.38;7.90;;;17.80;99.90;;;;;;5055624;28;20507;-79
2023/09/20 11:34:44;;;;;;;12.18;8.27;;;17.90;99.90;;;;;;5055532;28;20052;-79
2023/09/20 11:37:13;;;;;;;11.13;8.98;;;17.90;99.90;;;;;;5056616;28;20529;-79
2023/09/20 11:39:44;;;;;;;15.60;9.30;;;17.90;99.90;;;;;;5055368;28;20104;-79
2023/09/20 11:42:23;;;;;;;15.55;10.25;;;18.00;99.90;;;;;;5055520;28;20072;-79
2023/09/20 11:45:07;;;;;;;15.27;10.02;;;18.00;99.90;;;;;;5055754;28;20060;-78
2023/09/20 11:47:42;;;;;;;14.80;10.63;;;18.00;99.90;;;;;;5056482;28;20480;-79
2023/09/20 11:50:14;;;;;;;17.45;9.95;;;17.90;99.90;;;;;;5055500;28;20071;-79
2023/09/20 11:52:45;;;;;;;14.25;10.52;;;17.90;99.90;;;;;;5055428;28;20045;-78
2023/09/20 11:55:13;;;;;;;13.40;9.60;;;17.90;99.90;;;;;;5055260;28;20052;-79
2023/09/20 11:57:42;;;;;;;14.05;9.02;;;18.00;99.90;;;;;;5055320;28;20053;-79
2023/09/20 12:00:11;;;;;;;15.43;9.68;;;18.00;99.90;;;;;;5054925;28;20049;-79
2023/09/20 12:02:37;;;;;;;14.13;9.95;;;18.00;99.90;;;;;;5055025;28;20053;-80
2023/09/20 12:05:03;;;;;;;13.70;10.05;;;18.00;99.90;;;;;;5054806;28;20057;-79
2023/09/20 12:07:29;;;;;;;15.02;9.90;;;18.10;99.90;;;;;;5055178;28;20055;-79
2023/09/20 12:09:57;;;;;;;16.05;12.13;;;18.10;99.90;;;;;;5056128;28;20547;-79
2023/09/20 12:12:23;;;;;;;16.00;11.18;;;18.10;99.90;;;;;;5054767;28;20137;-79
2023/09/20 12:14:49;;;;;;;16.50;11.98;;;18.10;99.90;;;;;;5056226;28;20045;-80
2023/09/20 12:17:15;;;;;;;18.10;11.02;;;18.00;99.90;;;;;;5054886;28;20041;-79
2023/09/20 12:19:41;;;;;;;15.38;10.23;;;18.00;99.90;;;;;;5054761;28;20049;-81
2023/09/20 12:22:07;;;;;;;15.88;10.25;;;18.10;99.90;;;;;;5054494;28;20048;-79
2023/09/20 12:24:33;;;;;;;15.02;10.98;;;18.00;99.90;;;;;;5055054;28;20049;-79
2023/09/20 12:26:59;;;;;;;13.05;10.57;;;18.00;99.90;;;;;;5054423;28;20182;-79
2023/09/20 12:29:25;;;;;;;18.58;11.50;;;18.00;99.90;;;;;;5054109;28;20052;-79
2023/09/20 12:31:55;;;;;;;18.50;10.57;;;17.90;99.90;;;;;;5054687;28;20084;-79
2023/09/20 12:34:21;;;;;;;16.10;11.00;;;18.00;99.90;;;;;;5054403;28;20052;-79
2023/09/20 12:36:48;;;;;;;16.95;10.55;;;18.00;99.90;;;;;;5055539;28;20049;-79
2023/09/20 12:39:16;;;;;;;14.00;9.73;;;17.90;99.90;;;;;;5054206;28;20381;-79
2023/09/20 12:41:42;;;;;;;15.65;9.13;;;18.00;99.90;;;;;;5054102;28;20068;-81
2023/09/20 12:44:09;;;;;;;13.00;8.32;;;18.00;99.90;;;;;;5054401;28;20496;-80
2023/09/20 12:46:38;;;;;;;15.93;8.38;;;18.00;99.90;;;;;;5054496;28;20044;-81
2023/09/20 12:49:06;;;;;;;13.93;7.63;;;18.00;99.90;;;;;;5054432;28;20490;-78
2023/09/20 12:51:32;;;;;;;13.45;8.30;;;18.00;99.90;;;;;;5055476;28;20098;-80
2023/09/20 12:53:57;;;;;;;17.88;7.93;;;18.10;99.90;;;;;;5053966;28;20443;-78
2023/09/20 12:56:23;;;;;;;11.50;7.45;;;18.00;99.90;;;;;;5055454;28;20052;-79
2023/09/20 12:58:50;;;;;;;14.98;7.75;;;18.00;99.90;;;;;;5054134;28;20388;-80
2023/09/20 13:01:16;;;;;;;14.88;7.53;;;18.00;99.90;;;;;;5053804;28;20159;-80
2023/09/20 13:03:43;;;;;;;21.60;11.10;;;18.00;99.90;;;;;;5070854;28;20049;-78
2023/09/20 13:06:11;;;;;;;12.20;8.10;;;18.00;99.90;;;;;;5053705;28;20451;-79
2023/09/20 13:08:40;;;;;;;16.38;9.05;;;18.00;99.90;;;;;;5055030;28;20055;-79
2023/09/20 13:11:10;;;;;;;15.25;9.80;;;18.00;99.90;;;;;;5055222;28;20072;-79
2023/09/20 13:13:41;;;;;;;16.70;10.18;;;18.10;99.90;;;;;;5054037;28;20578;-80
2023/09/20 13:16:09;;;;;;;16.42;10.90;;;18.10;99.90;;;;;;5053530;28;20053;-78
2023/09/20 13:18:38;;;;;;;14.02;9.93;;;18.10;99.90;;;;;;5053505;28;20462;-78
2023/09/20 13:21:04;;;;;;;14.02;9.45;;;18.20;99.90;;;;;;5053447;28;20496;-79
2023/09/20 13:23:31;;;;;;;16.50;10.02;;;18.10;99.90;;;;;;5053764;28;20123;-80
2023/09/20 13:25:57;;;;;;;17.75;9.88;;;18.10;99.90;;;;;;5053449;28;20132;-79